sensor_id;sensor_type;location;lat;lon;timestamp;P1;durP1;ratioP1;P2;durP2;ratioP2
21665;SDS011;10994;45.486;9.190;2023-01-29T00:01:28;23.83;;;15.67;;
21665;SDS011;10994;45.486;9.190;2023-01-29T00:03:54;21.80;;;14.60;;
21665;SDS011;10994;45.486;9.190;2023-01-29T00:06:20;25.47;;;14.93;;
21665;SDS011;10994;45.486;9.190;2023-01-29T00:08:47;23.70;;;14.47;;
21665;SDS011;10994;45.486;9.190;2023-01-29T00:11:13;19.70;;;14.30;;
21665;SDS011;10994;45.486;9.190;2023-01-29T00:13:41;25.33;;;15.47;;
21665;SDS011;10994;45.486;9.190;2023-01-29T00:16:07;23.27;;;14.83;;
21665;SDS011;10994;45.486;9.190;2023-01-29T00:18:36;23.83;;;15.80;;
21665;SDS011;10994;45.486;9.190;2023-01-29T00:21:03;22.90;;;15.23;;
21665;SDS011;10994;45.486;9.190;2023-01-29T00:23:32;23.63;;;15.07;;
21665;SDS011;10994;45.486;9.190;2023-01-29T00:25:58;24.43;;;15.20;;
21665;SDS011;10994;45.486;9.190;2023-01-29T00:28:24;24.33;;;15.20;;
21665;SDS011;10994;45.486;9.190;2023-01-29T00:30:50;23.17;;;14.83;;
21665;SDS011;10994;45.486;9.190;2023-01-29T00:33:15;23.63;;;15.67;;
21665;SDS011;10994;45.486;9.190;2023-01-29T00:35:41;24.53;;;15.13;;
21665;SDS011;10994;45.486;9.190;2023-01-29T00:38:07;21.73;;;15.77;;
21665;SDS011;10994;45.486;9.190;2023-01-29T00:40:35;25.10;;;16.60;;
21665;SDS011;10994;45.486;9.190;2023-01-29T00:43:22;23.63;;;17.07;;
21665;SDS011;10994;45.486;9.190;2023-01-29T00:46:07;22.27;;;16.20;;
21665;SDS011;10994;45.486;9.190;2023-01-29T00:48:33;26.03;;;15.80;;
21665;SDS011;10994;45.486;9.190;2023-01-29T00:50:59;24.77;;;17.27;;
21665;SDS011;10994;45.486;9.190;2023-01-29T00:53:26;26.23;;;16.90;;
21665;SDS011;10994;45.486;9.190;2023-01-29T00:55:52;22.13;;;15.47;;
21665;SDS011;10994;45.486;9.190;2023-01-29T00:58:18;24.37;;;15.87;;
21665;SDS011;10994;45.486;9.190;2023-01-29T01:00:49;23.67;;;15.63;;
21665;SDS011;10994;45.486;9.190;2023-01-29T01:03:16;23.57;;;14.87;;
21665;SDS011;10994;45.486;9.190;2023-01-29T01:05:41;26.67;;;16.33;;
21665;SDS011;10994;45.486;9.190;2023-01-29T01:08:08;24.87;;;16.40;;
21665;SDS011;10994;45.486;9.190;2023-01-29T01:11:04;24.53;;;15.33;;
21665;SDS011;10994;45.486;9.190;2023-01-29T01:13:31;25.03;;;15.40;;
21665;SDS011;10994;45.486;9.190;2023-01-29T01:15:57;23.27;;;16.53;;
21665;SDS011;10994;45.486;9.190;2023-01-29T01:18:23;25.13;;;16.37;;
21665;SDS011;10994;45.486;9.190;2023-01-29T01:20:49;29.30;;;16.17;;
21665;SDS011;10994;45.486;9.190;2023-01-29T01:23:23;23.90;;;15.73;;
21665;SDS011;10994;45.486;9.190;2023-01-29T01:25:49;22.27;;;15.00;;
21665;SDS011;10994;45.486;9.190;2023-01-29T01:28:15;24.60;;;16.17;;
21665;SDS011;10994;45.486;9.190;2023-01-29T01:30:41;22.93;;;15.70;;
21665;SDS011;10994;45.486;9.190;2023-01-29T01:33:06;23.77;;;16.07;;
21665;SDS011;10994;45.486;9.190;2023-01-29T01:35:32;24.90;;;16.70;;
21665;SDS011;10994;45.486;9.190;2023-01-29T01:37:58;25.83;;;16.57;;
21665;SDS011;10994;45.486;9.190;2023-01-29T01:40:24;22.47;;;15.90;;
21665;SDS011;10994;45.486;9.190;2023-01-29T01:42:51;25.63;;;15.73;;
21665;SDS011;10994;45.486;9.190;2023-01-29T01:50:41;24.90;;;14.73;;
21665;SDS011;10994;45.486;9.190;2023-01-29T01:53:15;21.43;;;15.17;;
21665;SDS011;10994;45.486;9.190;2023-01-29T01:55:53;21.80;;;15.50;;
21665;SDS011;10994;45.486;9.190;2023-01-29T01:58:24;24.77;;;15.20;;
21665;SDS011;10994;45.486;9.190;2023-01-29T02:01:06;24.53;;;15.57;;
21665;SDS011;10994;45.486;9.190;2023-01-29T02:06:45;23.23;;;15.00;;
21665;SDS011;10994;45.486;9.190;2023-01-29T02:09:31;23.70;;;15.63;;
21665;SDS011;10994;45.486;9.190;2023-01-29T02:12:08;24.40;;;16.03;;
21665;SDS011;10994;45.486;9.190;2023-01-29T02:14:37;23.00;;;15.07;;
21665;SDS011;10994;45.486;9.190;2023-01-29T02:17:05;23.63;;;15.40;;
21665;SDS011;10994;45.486;9.190;2023-01-29T02:19:40;22.13;;;14.73;;
21665;SDS011;10994;45.486;9.190;2023-01-29T02:24:55;23.87;;;15.30;;
21665;SDS011;10994;45.486;9.190;2023-01-29T02:30:57;24.73;;;16.00;;
21665;SDS011;10994;45.486;9.190;2023-01-29T02:33:10;21.60;;;15.10;;
21665;SDS011;10994;45.486;9.190;2023-01-29T02:35:49;22.27;;;16.27;;
21665;SDS011;10994;45.486;9.190;2023-01-29T02:41:07;26.40;;;16.73;;
21665;SDS011;10994;45.486;9.190;2023-01-29T02:43:45;24.40;;;16.60;;
21665;SDS011;10994;45.486;9.190;2023-01-29T02:46:46;25.20;;;16.10;;
21665;SDS011;10994;45.486;9.190;2023-01-29T02:49:31;26.60;;;16.80;;
21665;SDS011;10994;45.486;9.190;2023-01-29T02:52:04;24.57;;;16.77;;
21665;SDS011;10994;45.486;9.190;2023-01-29T03:00:02;24.83;;;17.20;;
21665;SDS011;10994;45.486;9.190;2023-01-29T03:05:07;28.73;;;17.53;;
21665;SDS011;10994;45.486;9.190;2023-01-29T03:07:39;25.73;;;17.13;;
21665;SDS011;10994;45.486;9.190;2023-01-29T03:10:22;25.87;;;17.03;;
21665;SDS011;10994;45.486;9.190;2023-01-29T03:13:02;26.00;;;15.40;;
21665;SDS011;10994;45.486;9.190;2023-01-29T03:15:37;21.50;;;16.07;;
21665;SDS011;10994;45.486;9.190;2023-01-29T03:18:42;23.43;;;16.33;;
21665;SDS011;10994;45.486;9.190;2023-01-29T03:21:17;25.10;;;16.67;;
21665;SDS011;10994;45.486;9.190;2023-01-29T03:24:24;26.07;;;16.27;;
21665;SDS011;10994;45.486;9.190;2023-01-29T03:27:13;25.40;;;16.90;;
21665;SDS011;10994;45.486;9.190;2023-01-29T03:30:01;29.80;;;17.20;;
21665;SDS011;10994;45.486;9.190;2023-01-29T03:32:55;23.30;;;16.23;;
21665;SDS011;10994;45.486;9.190;2023-01-29T03:35:27;25.10;;;17.07;;
21665;SDS011;10994;45.486;9.190;2023-01-29T03:38:03;24.50;;;16.87;;
21665;SDS011;10994;45.486;9.190;2023-01-29T03:40:57;26.03;;;14.93;;
21665;SDS011;10994;45.486;9.190;2023-01-29T03:48:27;24.30;;;16.27;;
21665;SDS011;10994;45.486;9.190;2023-01-29T03:51:13;21.67;;;14.83;;
21665;SDS011;10994;45.486;9.190;2023-01-29T03:53:51;23.87;;;15.63;;
21665;SDS011;10994;45.486;9.190;2023-01-29T03:56:32;22.70;;;16.10;;
21665;SDS011;10994;45.486;9.190;2023-01-29T03:59:54;23.87;;;16.23;;
21665;SDS011;10994;45.486;9.190;2023-01-29T04:02:21;23.00;;;16.27;;
21665;SDS011;10994;45.486;9.190;2023-01-29T04:04:58;24.73;;;16.07;;
21665;SDS011;10994;45.486;9.190;2023-01-29T04:07:30;24.40;;;16.17;;
21665;SDS011;10994;45.486;9.190;2023-01-29T04:10:07;24.37;;;15.97;;
21665;SDS011;10994;45.486;9.190;2023-01-29T04:12:37;23.73;;;16.50;;
21665;SDS011;10994;45.486;9.190;2023-01-29T04:15:10;20.57;;;15.23;;
21665;SDS011;10994;45.486;9.190;2023-01-29T04:17:40;22.27;;;15.87;;
21665;SDS011;10994;45.486;9.190;2023-01-29T04:20:19;21.17;;;16.10;;
21665;SDS011;10994;45.486;9.190;2023-01-29T04:22:46;21.77;;;16.40;;
21665;SDS011;10994;45.486;9.190;2023-01-29T04:25:20;24.07;;;15.80;;
21665;SDS011;10994;45.486;9.190;2023-01-29T04:30:46;22.23;;;16.07;;
21665;SDS011;10994;45.486;9.190;2023-01-29T04:33:22;23.43;;;15.60;;
21665;SDS011;10994;45.486;9.190;2023-01-29T04:41:49;22.87;;;16.60;;
21665;SDS011;10994;45.486;9.190;2023-01-29T04:44:26;21.10;;;16.10;;
21665;SDS011;10994;45.486;9.190;2023-01-29T04:55:34;22.97;;;15.90;;
21665;SDS011;10994;45.486;9.190;2023-01-29T05:00:56;22.67;;;15.83;;
21665;SDS011;10994;45.486;9.190;2023-01-29T05:03:24;26.47;;;17.87;;
21665;SDS011;10994;45.486;9.190;2023-01-29T05:05:52;21.90;;;14.87;;
21665;SDS011;10994;45.486;9.190;2023-01-29T05:08:20;18.77;;;15.27;;
21665;SDS011;10994;45.486;9.190;2023-01-29T05:10:49;23.53;;;15.37;;
21665;SDS011;10994;45.486;9.190;2023-01-29T05:13:16;21.23;;;14.93;;
21665;SDS011;10994;45.486;9.190;2023-01-29T05:16:04;22.47;;;15.17;;
21665;SDS011;10994;45.486;9.190;2023-01-29T05:18:45;22.60;;;15.40;;
21665;SDS011;10994;45.486;9.190;2023-01-29T05:21:11;21.20;;;14.73;;
21665;SDS011;10994;45.486;9.190;2023-01-29T05:23:37;21.87;;;14.80;;
21665;SDS011;10994;45.486;9.190;2023-01-29T05:26:03;21.43;;;14.97;;
21665;SDS011;10994;45.486;9.190;2023-01-29T05:28:29;23.83;;;14.33;;
21665;SDS011;10994;45.486;9.190;2023-01-29T05:30:55;22.60;;;15.20;;
21665;SDS011;10994;45.486;9.190;2023-01-29T05:33:25;22.57;;;14.37;;
21665;SDS011;10994;45.486;9.190;2023-01-29T05:35:52;20.87;;;14.80;;
21665;SDS011;10994;45.486;9.190;2023-01-29T05:38:18;22.47;;;14.83;;
21665;SDS011;10994;45.486;9.190;2023-01-29T05:40:44;24.83;;;15.93;;
21665;SDS011;10994;45.486;9.190;2023-01-29T05:43:14;25.47;;;14.87;;
21665;SDS011;10994;45.486;9.190;2023-01-29T05:45:51;20.60;;;14.97;;
21665;SDS011;10994;45.486;9.190;2023-01-29T05:48:18;21.47;;;15.00;;
21665;SDS011;10994;45.486;9.190;2023-01-29T05:50:44;20.70;;;14.37;;
21665;SDS011;10994;45.486;9.190;2023-01-29T05:53:10;20.47;;;14.53;;
21665;SDS011;10994;45.486;9.190;2023-01-29T05:55:35;19.50;;;14.20;;
21665;SDS011;10994;45.486;9.190;2023-01-29T05:58:01;20.37;;;14.43;;
21665;SDS011;10994;45.486;9.190;2023-01-29T06:00:27;19.80;;;14.00;;
21665;SDS011;10994;45.486;9.190;2023-01-29T06:02:52;19.50;;;14.03;;
21665;SDS011;10994;45.486;9.190;2023-01-29T06:05:18;21.10;;;14.40;;
21665;SDS011;10994;45.486;9.190;2023-01-29T06:07:44;20.77;;;15.47;;
21665;SDS011;10994;45.486;9.190;2023-01-29T06:10:11;21.33;;;14.23;;
21665;SDS011;10994;45.486;9.190;2023-01-29T06:12:42;29.87;;;14.90;;
21665;SDS011;10994;45.486;9.190;2023-01-29T06:15:08;18.87;;;14.77;;
21665;SDS011;10994;45.486;9.190;2023-01-29T06:17:35;19.80;;;13.80;;
21665;SDS011;10994;45.486;9.190;2023-01-29T06:20:00;27.23;;;16.47;;
21665;SDS011;10994;45.486;9.190;2023-01-29T06:22:26;18.83;;;13.50;;
21665;SDS011;10994;45.486;9.190;2023-01-29T06:24:52;22.17;;;13.93;;
21665;SDS011;10994;45.486;9.190;2023-01-29T06:27:17;18.93;;;13.60;;
21665;SDS011;10994;45.486;9.190;2023-01-29T06:29:43;23.13;;;15.13;;
21665;SDS011;10994;45.486;9.190;2023-01-29T06:32:08;19.80;;;14.30;;
21665;SDS011;10994;45.486;9.190;2023-01-29T06:34:34;24.23;;;13.83;;
21665;SDS011;10994;45.486;9.190;2023-01-29T06:37:00;20.00;;;13.80;;
21665;SDS011;10994;45.486;9.190;2023-01-29T06:39:26;21.63;;;13.50;;
21665;SDS011;10994;45.486;9.190;2023-01-29T06:41:51;20.23;;;13.70;;
21665;SDS011;10994;45.486;9.190;2023-01-29T06:44:17;20.87;;;14.37;;
21665;SDS011;10994;45.486;9.190;2023-01-29T06:46:43;22.63;;;14.40;;
21665;SDS011;10994;45.486;9.190;2023-01-29T06:49:08;17.30;;;12.80;;
21665;SDS011;10994;45.486;9.190;2023-01-29T06:51:34;19.90;;;13.77;;
21665;SDS011;10994;45.486;9.190;2023-01-29T06:54:00;18.43;;;13.60;;
21665;SDS011;10994;45.486;9.190;2023-01-29T06:56:25;21.97;;;13.80;;
21665;SDS011;10994;45.486;9.190;2023-01-29T06:58:51;16.30;;;13.00;;
21665;SDS011;10994;45.486;9.190;2023-01-29T07:01:17;19.80;;;13.73;;
21665;SDS011;10994;45.486;9.190;2023-01-29T07:03:43;19.87;;;13.53;;
21665;SDS011;10994;45.486;9.190;2023-01-29T07:06:08;22.53;;;13.47;;
21665;SDS011;10994;45.486;9.190;2023-01-29T07:08:35;21.20;;;13.80;;
21665;SDS011;10994;45.486;9.190;2023-01-29T07:11:01;20.80;;;14.20;;
21665;SDS011;10994;45.486;9.190;2023-01-29T07:13:27;21.03;;;13.83;;
21665;SDS011;10994;45.486;9.190;2023-01-29T07:15:56;20.03;;;13.73;;
21665;SDS011;10994;45.486;9.190;2023-01-29T07:18:23;17.17;;;12.17;;
21665;SDS011;10994;45.486;9.190;2023-01-29T07:20:49;18.30;;;12.97;;
21665;SDS011;10994;45.486;9.190;2023-01-29T07:23:15;22.57;;;13.77;;
21665;SDS011;10994;45.486;9.190;2023-01-29T07:25:42;20.30;;;14.40;;
21665;SDS011;10994;45.486;9.190;2023-01-29T07:28:08;19.67;;;13.80;;
21665;SDS011;10994;45.486;9.190;2023-01-29T07:30:34;18.97;;;13.30;;
21665;SDS011;10994;45.486;9.190;2023-01-29T07:33:06;18.73;;;13.33;;
21665;SDS011;10994;45.486;9.190;2023-01-29T07:35:38;20.40;;;13.43;;
21665;SDS011;10994;45.486;9.190;2023-01-29T07:38:05;18.17;;;13.57;;
21665;SDS011;10994;45.486;9.190;2023-01-29T07:40:32;19.97;;;14.43;;
21665;SDS011;10994;45.486;9.190;2023-01-29T07:42:58;21.73;;;13.53;;
21665;SDS011;10994;45.486;9.190;2023-01-29T07:45:25;22.10;;;14.30;;
21665;SDS011;10994;45.486;9.190;2023-01-29T07:47:52;19.53;;;14.10;;
21665;SDS011;10994;45.486;9.190;2023-01-29T07:50:19;22.23;;;16.00;;
21665;SDS011;10994;45.486;9.190;2023-01-29T07:52:46;25.23;;;16.03;;
21665;SDS011;10994;45.486;9.190;2023-01-29T07:55:12;20.53;;;14.33;;
21665;SDS011;10994;45.486;9.190;2023-01-29T07:57:37;23.47;;;14.27;;
21665;SDS011;10994;45.486;9.190;2023-01-29T08:00:03;19.93;;;14.60;;
21665;SDS011;10994;45.486;9.190;2023-01-29T08:02:37;21.10;;;13.83;;
21665;SDS011;10994;45.486;9.190;2023-01-29T08:05:03;19.10;;;13.50;;
21665;SDS011;10994;45.486;9.190;2023-01-29T08:07:29;23.40;;;13.83;;
21665;SDS011;10994;45.486;9.190;2023-01-29T08:09:55;24.20;;;13.67;;
21665;SDS011;10994;45.486;9.190;2023-01-29T08:12:20;18.67;;;14.17;;
21665;SDS011;10994;45.486;9.190;2023-01-29T08:14:46;19.03;;;13.70;;
21665;SDS011;10994;45.486;9.190;2023-01-29T08:17:15;23.70;;;14.57;;
21665;SDS011;10994;45.486;9.190;2023-01-29T08:19:40;19.20;;;14.53;;
21665;SDS011;10994;45.486;9.190;2023-01-29T08:22:06;21.93;;;12.80;;
21665;SDS011;10994;45.486;9.190;2023-01-29T08:24:32;23.97;;;14.67;;
21665;SDS011;10994;45.486;9.190;2023-01-29T08:26:57;19.33;;;14.20;;
21665;SDS011;10994;45.486;9.190;2023-01-29T08:29:23;28.70;;;16.20;;
21665;SDS011;10994;45.486;9.190;2023-01-29T08:31:49;23.30;;;15.60;;
21665;SDS011;10994;45.486;9.190;2023-01-29T08:34:15;21.50;;;14.67;;
21665;SDS011;10994;45.486;9.190;2023-01-29T08:36:41;20.23;;;14.77;;
21665;SDS011;10994;45.486;9.190;2023-01-29T08:39:07;21.60;;;15.20;;
21665;SDS011;10994;45.486;9.190;2023-01-29T08:41:32;24.53;;;15.57;;
21665;SDS011;10994;45.486;9.190;2023-01-29T08:44:01;23.27;;;15.77;;
21665;SDS011;10994;45.486;9.190;2023-01-29T08:46:28;20.27;;;14.60;;
21665;SDS011;10994;45.486;9.190;2023-01-29T08:48:54;23.50;;;14.77;;
21665;SDS011;10994;45.486;9.190;2023-01-29T08:51:20;22.97;;;14.90;;
21665;SDS011;10994;45.486;9.190;2023-01-29T08:53:46;19.93;;;14.90;;
21665;SDS011;10994;45.486;9.190;2023-01-29T08:56:11;20.90;;;15.03;;
21665;SDS011;10994;45.486;9.190;2023-01-29T08:58:37;21.90;;;15.23;;
21665;SDS011;10994;45.486;9.190;2023-01-29T09:01:07;21.27;;;15.20;;
21665;SDS011;10994;45.486;9.190;2023-01-29T09:03:35;20.30;;;14.60;;
21665;SDS011;10994;45.486;9.190;2023-01-29T09:06:07;26.77;;;16.03;;
21665;SDS011;10994;45.486;9.190;2023-01-29T09:08:34;24.93;;;14.43;;
21665;SDS011;10994;45.486;9.190;2023-01-29T09:11:00;22.90;;;14.80;;
21665;SDS011;10994;45.486;9.190;2023-01-29T09:13:26;25.20;;;14.70;;
21665;SDS011;10994;45.486;9.190;2023-01-29T09:15:51;26.77;;;14.93;;
21665;SDS011;10994;45.486;9.190;2023-01-29T09:18:17;26.73;;;15.33;;
21665;SDS011;10994;45.486;9.190;2023-01-29T09:20:44;21.13;;;14.73;;
21665;SDS011;10994;45.486;9.190;2023-01-29T09:23:09;21.77;;;14.73;;
21665;SDS011;10994;45.486;9.190;2023-01-29T09:25:35;24.23;;;16.63;;
21665;SDS011;10994;45.486;9.190;2023-01-29T09:28:01;21.63;;;14.73;;
21665;SDS011;10994;45.486;9.190;2023-01-29T09:30:27;21.10;;;14.90;;
21665;SDS011;10994;45.486;9.190;2023-01-29T09:32:53;23.83;;;15.20;;
21665;SDS011;10994;45.486;9.190;2023-01-29T09:35:20;24.17;;;16.43;;
21665;SDS011;10994;45.486;9.190;2023-01-29T09:37:47;22.90;;;15.40;;
21665;SDS011;10994;45.486;9.190;2023-01-29T09:43:01;22.80;;;16.10;;
21665;SDS011;10994;45.486;9.190;2023-01-29T09:45:31;26.00;;;17.37;;
21665;SDS011;10994;45.486;9.190;2023-01-29T09:47:59;27.13;;;16.63;;
21665;SDS011;10994;45.486;9.190;2023-01-29T09:50:31;21.47;;;16.17;;
21665;SDS011;10994;45.486;9.190;2023-01-29T09:56:00;23.07;;;16.43;;
21665;SDS011;10994;45.486;9.190;2023-01-29T10:04:06;23.00;;;16.33;;
21665;SDS011;10994;45.486;9.190;2023-01-29T10:14:35;22.10;;;14.53;;
21665;SDS011;10994;45.486;9.190;2023-01-29T10:20:31;19.60;;;13.87;;
21665;SDS011;10994;45.486;9.190;2023-01-29T10:25:45;23.77;;;14.27;;
21665;SDS011;10994;45.486;9.190;2023-01-29T10:28:21;25.67;;;15.53;;
21665;SDS011;10994;45.486;9.190;2023-01-29T10:31:07;20.37;;;14.20;;
21665;SDS011;10994;45.486;9.190;2023-01-29T10:33:38;20.87;;;14.70;;
21665;SDS011;10994;45.486;9.190;2023-01-29T10:36:18;24.77;;;14.67;;
21665;SDS011;10994;45.486;9.190;2023-01-29T10:38:48;21.73;;;14.67;;
21665;SDS011;10994;45.486;9.190;2023-01-29T10:41:23;20.37;;;14.63;;
21665;SDS011;10994;45.486;9.190;2023-01-29T10:55:08;23.43;;;14.03;;
21665;SDS011;10994;45.486;9.190;2023-01-29T10:57:57;20.67;;;13.87;;
21665;SDS011;10994;45.486;9.190;2023-01-29T11:00:41;26.20;;;15.37;;
21665;SDS011;10994;45.486;9.190;2023-01-29T11:03:20;22.90;;;16.13;;
21665;SDS011;10994;45.486;9.190;2023-01-29T11:06:03;21.27;;;13.90;;
21665;SDS011;10994;45.486;9.190;2023-01-29T11:08:56;21.50;;;14.83;;
21665;SDS011;10994;45.486;9.190;2023-01-29T11:11:47;22.43;;;14.80;;
21665;SDS011;10994;45.486;9.190;2023-01-29T11:14:20;19.07;;;13.77;;
21665;SDS011;10994;45.486;9.190;2023-01-29T11:16:52;21.50;;;14.37;;
21665;SDS011;10994;45.486;9.190;2023-01-29T11:19:18;19.33;;;13.97;;
21665;SDS011;10994;45.486;9.190;2023-01-29T11:24:38;17.27;;;12.40;;
21665;SDS011;10994;45.486;9.190;2023-01-29T11:27:12;19.40;;;12.20;;
21665;SDS011;10994;45.486;9.190;2023-01-29T11:29:42;17.23;;;12.20;;
21665;SDS011;10994;45.486;9.190;2023-01-29T11:32:12;20.67;;;13.63;;
21665;SDS011;10994;45.486;9.190;2023-01-29T11:35:02;20.87;;;15.20;;
21665;SDS011;10994;45.486;9.190;2023-01-29T11:43:08;18.47;;;14.00;;
21665;SDS011;10994;45.486;9.190;2023-01-29T11:45:52;20.63;;;13.73;;
21665;SDS011;10994;45.486;9.190;2023-01-29T11:48:22;20.53;;;13.97;;
21665;SDS011;10994;45.486;9.190;2023-01-29T11:50:57;18.33;;;13.17;;
21665;SDS011;10994;45.486;9.190;2023-01-29T11:56:01;23.80;;;13.40;;
21665;SDS011;10994;45.486;9.190;2023-01-29T11:58:32;24.53;;;14.07;;
21665;SDS011;10994;45.486;9.190;2023-01-29T12:00:59;19.13;;;12.93;;
21665;SDS011;10994;45.486;9.190;2023-01-29T12:03:33;20.50;;;11.90;;
21665;SDS011;10994;45.486;9.190;2023-01-29T12:06:17;19.40;;;12.47;;
21665;SDS011;10994;45.486;9.190;2023-01-29T12:08:52;18.70;;;12.60;;
21665;SDS011;10994;45.486;9.190;2023-01-29T12:11:30;17.43;;;12.73;;
21665;SDS011;10994;45.486;9.190;2023-01-29T12:14:01;16.70;;;11.83;;
21665;SDS011;10994;45.486;9.190;2023-01-29T12:16:37;14.77;;;10.93;;
21665;SDS011;10994;45.486;9.190;2023-01-29T12:19:23;16.63;;;12.53;;
21665;SDS011;10994;45.486;9.190;2023-01-29T12:22:05;20.67;;;14.10;;
21665;SDS011;10994;45.486;9.190;2023-01-29T12:24:55;18.33;;;12.70;;
21665;SDS011;10994;45.486;9.190;2023-01-29T12:27:34;16.80;;;12.43;;
21665;SDS011;10994;45.486;9.190;2023-01-29T12:35:45;17.03;;;11.47;;
21665;SDS011;10994;45.486;9.190;2023-01-29T12:40:54;12.67;;;9.20;;
21665;SDS011;10994;45.486;9.190;2023-01-29T12:43:29;13.07;;;9.13;;
21665;SDS011;10994;45.486;9.190;2023-01-29T12:45:58;13.17;;;9.10;;
21665;SDS011;10994;45.486;9.190;2023-01-29T12:48:33;11.07;;;7.83;;
21665;SDS011;10994;45.486;9.190;2023-01-29T12:51:09;13.03;;;10.17;;
21665;SDS011;10994;45.486;9.190;2023-01-29T12:53:43;12.43;;;9.33;;
21665;SDS011;10994;45.486;9.190;2023-01-29T12:56:35;13.30;;;8.70;;
21665;SDS011;10994;45.486;9.190;2023-01-29T12:59:02;13.57;;;10.77;;
21665;SDS011;10994;45.486;9.190;2023-01-29T13:01:34;13.00;;;9.90;;
21665;SDS011;10994;45.486;9.190;2023-01-29T13:04:13;15.60;;;11.23;;
21665;SDS011;10994;45.486;9.190;2023-01-29T13:06:42;13.90;;;9.10;;
21665;SDS011;10994;45.486;9.190;2023-01-29T13:09:14;12.27;;;9.33;;
21665;SDS011;10994;45.486;9.190;2023-01-29T13:12:06;12.73;;;9.97;;
21665;SDS011;10994;45.486;9.190;2023-01-29T13:14:45;14.37;;;9.70;;
21665;SDS011;10994;45.486;9.190;2023-01-29T13:19:46;12.33;;;8.80;;
21665;SDS011;10994;45.486;9.190;2023-01-29T13:22:23;17.13;;;10.77;;
21665;SDS011;10994;45.486;9.190;2023-01-29T13:24:51;16.13;;;10.20;;
21665;SDS011;10994;45.486;9.190;2023-01-29T13:27:19;15.73;;;9.90;;
21665;SDS011;10994;45.486;9.190;2023-01-29T13:29:50;14.80;;;9.63;;
21665;SDS011;10994;45.486;9.190;2023-01-29T13:32:22;13.87;;;9.00;;
21665;SDS011;10994;45.486;9.190;2023-01-29T13:34:57;14.33;;;10.60;;
21665;SDS011;10994;45.486;9.190;2023-01-29T13:37:28;14.77;;;9.93;;
21665;SDS011;10994;45.486;9.190;2023-01-29T13:39:59;15.43;;;10.13;;
21665;SDS011;10994;45.486;9.190;2023-01-29T13:42:44;14.93;;;9.63;;
21665;SDS011;10994;45.486;9.190;2023-01-29T13:45:24;14.60;;;9.23;;
21665;SDS011;10994;45.486;9.190;2023-01-29T13:48:07;15.37;;;9.90;;
21665;SDS011;10994;45.486;9.190;2023-01-29T13:50:52;12.50;;;9.47;;
21665;SDS011;10994;45.486;9.190;2023-01-29T13:53:22;14.43;;;9.87;;
21665;SDS011;10994;45.486;9.190;2023-01-29T13:56:58;17.67;;;11.07;;
21665;SDS011;10994;45.486;9.190;2023-01-29T13:59:08;16.73;;;10.57;;
21665;SDS011;10994;45.486;9.190;2023-01-29T14:06:49;12.97;;;9.80;;
21665;SDS011;10994;45.486;9.190;2023-01-29T14:09:29;15.60;;;10.50;;
21665;SDS011;10994;45.486;9.190;2023-01-29T14:17:13;15.20;;;10.57;;
21665;SDS011;10994;45.486;9.190;2023-01-29T14:19:50;15.77;;;10.17;;
21665;SDS011;10994;45.486;9.190;2023-01-29T14:22:19;16.23;;;11.47;;
21665;SDS011;10994;45.486;9.190;2023-01-29T14:24:48;17.13;;;11.50;;
21665;SDS011;10994;45.486;9.190;2023-01-29T14:27:19;17.43;;;11.20;;
21665;SDS011;10994;45.486;9.190;2023-01-29T14:29:49;16.70;;;10.90;;
21665;SDS011;10994;45.486;9.190;2023-01-29T14:32:21;16.00;;;10.63;;
21665;SDS011;10994;45.486;9.190;2023-01-29T14:34:50;14.60;;;10.87;;
21665;SDS011;10994;45.486;9.190;2023-01-29T14:37:24;17.57;;;10.97;;
21665;SDS011;10994;45.486;9.190;2023-01-29T14:39:57;15.77;;;10.90;;
21665;SDS011;10994;45.486;9.190;2023-01-29T14:42:33;14.77;;;10.53;;
21665;SDS011;10994;45.486;9.190;2023-01-29T14:45:21;21.57;;;14.60;;
21665;SDS011;10994;45.486;9.190;2023-01-29T14:56:41;14.83;;;9.43;;
21665;SDS011;10994;45.486;9.190;2023-01-29T14:59:36;15.57;;;10.60;;
21665;SDS011;10994;45.486;9.190;2023-01-29T15:02:09;16.27;;;9.63;;
21665;SDS011;10994;45.486;9.190;2023-01-29T15:04:51;14.77;;;9.43;;
21665;SDS011;10994;45.486;9.190;2023-01-29T15:07:37;17.10;;;10.30;;
21665;SDS011;10994;45.486;9.190;2023-01-29T15:10:20;15.60;;;9.60;;
21665;SDS011;10994;45.486;9.190;2023-01-29T15:13:12;15.37;;;9.80;;
21665;SDS011;10994;45.486;9.190;2023-01-29T15:15:54;14.53;;;10.20;;
21665;SDS011;10994;45.486;9.190;2023-01-29T15:18:26;16.43;;;10.70;;
21665;SDS011;10994;45.486;9.190;2023-01-29T15:21:13;13.80;;;10.20;;
21665;SDS011;10994;45.486;9.190;2023-01-29T15:23:43;16.57;;;11.20;;
21665;SDS011;10994;45.486;9.190;2023-01-29T15:26:16;19.50;;;11.77;;
21665;SDS011;10994;45.486;9.190;2023-01-29T15:28:44;15.43;;;10.53;;
21665;SDS011;10994;45.486;9.190;2023-01-29T15:31:18;16.87;;;11.73;;
21665;SDS011;10994;45.486;9.190;2023-01-29T15:33:45;15.97;;;10.93;;
21665;SDS011;10994;45.486;9.190;2023-01-29T15:36:18;15.17;;;10.50;;
21665;SDS011;10994;45.486;9.190;2023-01-29T15:38:47;16.87;;;11.27;;
21665;SDS011;10994;45.486;9.190;2023-01-29T15:41:20;19.40;;;12.03;;
21665;SDS011;10994;45.486;9.190;2023-01-29T15:43:49;18.80;;;11.60;;
21665;SDS011;10994;45.486;9.190;2023-01-29T15:46:24;18.80;;;11.90;;
21665;SDS011;10994;45.486;9.190;2023-01-29T15:49:05;16.93;;;11.20;;
21665;SDS011;10994;45.486;9.190;2023-01-29T15:51:39;15.63;;;10.83;;
21665;SDS011;10994;45.486;9.190;2023-01-29T15:54:14;20.07;;;10.40;;
21665;SDS011;10994;45.486;9.190;2023-01-29T15:56:47;24.67;;;15.80;;
21665;SDS011;10994;45.486;9.190;2023-01-29T15:59:25;17.03;;;12.07;;
21665;SDS011;10994;45.486;9.190;2023-01-29T16:01:54;14.70;;;10.10;;
21665;SDS011;10994;45.486;9.190;2023-01-29T16:04:24;19.37;;;10.83;;
21665;SDS011;10994;45.486;9.190;2023-01-29T16:06:53;15.50;;;10.90;;
21665;SDS011;10994;45.486;9.190;2023-01-29T16:09:21;15.53;;;10.60;;
21665;SDS011;10994;45.486;9.190;2023-01-29T16:11:49;14.33;;;10.70;;
21665;SDS011;10994;45.486;9.190;2023-01-29T16:14:16;17.90;;;11.50;;
21665;SDS011;10994;45.486;9.190;2023-01-29T16:16:45;16.27;;;10.70;;
21665;SDS011;10994;45.486;9.190;2023-01-29T16:19:26;14.67;;;10.37;;
21665;SDS011;10994;45.486;9.190;2023-01-29T16:21:57;18.17;;;10.27;;
21665;SDS011;10994;45.486;9.190;2023-01-29T16:24:26;17.43;;;10.80;;
21665;SDS011;10994;45.486;9.190;2023-01-29T16:26:56;21.13;;;13.47;;
21665;SDS011;10994;45.486;9.190;2023-01-29T16:29:29;23.97;;;14.80;;
21665;SDS011;10994;45.486;9.190;2023-01-29T16:31:57;17.47;;;12.03;;
21665;SDS011;10994;45.486;9.190;2023-01-29T16:34:28;17.00;;;11.07;;
21665;SDS011;10994;45.486;9.190;2023-01-29T16:36:55;17.17;;;10.60;;
21665;SDS011;10994;45.486;9.190;2023-01-29T16:39:24;16.23;;;11.00;;
21665;SDS011;10994;45.486;9.190;2023-01-29T16:44:39;15.23;;;10.80;;
21665;SDS011;10994;45.486;9.190;2023-01-29T16:47:10;19.80;;;11.03;;
21665;SDS011;10994;45.486;9.190;2023-01-29T16:49:54;16.60;;;11.03;;
21665;SDS011;10994;45.486;9.190;2023-01-29T16:52:30;19.17;;;11.03;;
21665;SDS011;10994;45.486;9.190;2023-01-29T16:54:59;18.53;;;11.23;;
21665;SDS011;10994;45.486;9.190;2023-01-29T16:57:37;18.60;;;10.97;;
21665;SDS011;10994;45.486;9.190;2023-01-29T17:00:17;24.97;;;14.47;;
21665;SDS011;10994;45.486;9.190;2023-01-29T17:02:47;18.80;;;12.20;;